Terminal Aerodrome Forecast
Issued by NWS

Home | Current Version | Previous Version | Text Only | Print | Product List | Glossary Off
Versions: 1 2 3 4 5 6 7 8 9 10 11 12 13 14 15 16 17 18 19

000
FTUS43 KPAH 170520
TAFOWB
TAF
KOWB 170520Z 1706/1806 VRB03KT P6SM SCT040 BKN150
      TEMPO 1709/1712 5SM BR
     FM171400 23012G20KT P6SM SCT025 BKN040
     FM171800 23013G21KT P6SM VCTS BKN030CB
     FM180000 25005KT P6SM VCSH BKN035=

USA.gov is the U.S. government's official web portal to all federal, state and local government web resources and services.